createdAt,value
2022-09-22T00:02:03.786Z,16.99
2022-09-22T00:04:30.234Z,16.96
2022-09-22T00:06:56.568Z,16.93
2022-09-22T00:09:22.818Z,16.88
2022-09-22T00:11:49.226Z,16.86
2022-09-22T00:14:15.415Z,16.84
2022-09-22T00:16:41.939Z,16.81
2022-09-22T00:19:08.451Z,16.81
2022-09-22T00:21:35.419Z,16.76
2022-09-22T00:24:01.626Z,16.74
2022-09-22T00:26:27.901Z,16.71
2022-09-22T00:28:54.494Z,16.70
2022-09-22T00:31:21.215Z,16.67
2022-09-22T00:33:47.511Z,16.65
2022-09-22T00:36:13.900Z,16.63
2022-09-22T00:38:40.327Z,16.60
2022-09-22T00:41:06.523Z,16.57
2022-09-22T00:43:32.778Z,16.55
2022-09-22T00:45:59.113Z,16.54
2022-09-22T00:48:25.301Z,16.50
2022-09-22T00:50:51.501Z,16.47
2022-09-22T00:53:17.888Z,16.44
2022-09-22T00:55:46.277Z,16.41
2022-09-22T00:58:12.472Z,16.38
2022-09-22T01:00:38.703Z,16.36
2022-09-22T01:03:04.892Z,16.33
2022-09-22T01:05:31.396Z,16.30
2022-09-22T01:07:58.507Z,16.27
2022-09-22T01:10:24.731Z,16.25
2022-09-22T01:12:51.338Z,16.22
2022-09-22T01:15:17.545Z,16.19
2022-09-22T01:17:44.033Z,16.17
2022-09-22T01:20:10.421Z,16.15
2022-09-22T01:22:36.689Z,16.11
2022-09-22T01:25:03.111Z,16.08
2022-09-22T01:27:29.295Z,16.06
2022-09-22T01:29:55.526Z,16.03
2022-09-22T01:32:21.708Z,16.00
2022-09-22T01:34:47.897Z,15.97
2022-09-22T01:37:14.151Z,15.94
2022-09-22T01:39:40.331Z,15.92
2022-09-22T01:42:06.526Z,15.91
2022-09-22T01:44:32.733Z,15.88
2022-09-22T01:46:59.565Z,15.85
2022-09-22T01:49:25.782Z,15.83
2022-09-22T01:51:52.381Z,15.80
2022-09-22T01:54:18.665Z,15.79
2022-09-22T01:56:46.314Z,15.76
2022-09-22T01:59:12.604Z,15.75
2022-09-22T02:01:38.898Z,15.73
2022-09-22T02:04:05.371Z,15.71
2022-09-22T02:06:31.629Z,15.69
2022-09-22T02:08:57.891Z,15.66
2022-09-22T02:11:24.131Z,15.64
2022-09-22T02:13:50.384Z,15.63
2022-09-22T02:16:16.706Z,15.62
2022-09-22T02:18:42.930Z,15.58
2022-09-22T02:21:09.172Z,15.57
2022-09-22T02:23:35.480Z,15.55
2022-09-22T02:26:05.456Z,15.53
2022-09-22T02:28:31.680Z,15.51
2022-09-22T02:31:18.661Z,15.50
2022-09-22T02:33:45.029Z,15.47
2022-09-22T02:36:11.339Z,15.45
2022-09-22T02:38:37.575Z,15.43
2022-09-22T02:41:03.986Z,15.43
2022-09-22T02:43:30.329Z,15.40
2022-09-22T02:45:56.557Z,15.39
2022-09-22T02:48:23.073Z,15.36
2022-09-22T02:50:49.662Z,15.35
2022-09-22T02:53:15.859Z,15.33
2022-09-22T02:55:42.113Z,15.30
2022-09-22T02:58:08.347Z,15.28
2022-09-22T03:00:34.571Z,15.27
2022-09-22T03:03:00.800Z,15.25
2022-09-22T03:05:27.117Z,15.23
2022-09-22T03:07:53.359Z,15.22
2022-09-22T03:10:19.815Z,15.20
2022-09-22T03:13:09.183Z,15.18
2022-09-22T03:15:32.828Z,15.15
2022-09-22T03:17:59.079Z,15.13
2022-09-22T03:20:25.396Z,15.12
2022-09-22T03:22:51.600Z,15.09
2022-09-22T03:25:17.804Z,15.06
2022-09-22T03:27:44.546Z,15.06
2022-09-22T03:30:10.746Z,15.03
2022-09-22T03:32:37.258Z,15.01
2022-09-22T03:35:03.985Z,14.99
2022-09-22T03:37:31.318Z,14.98
2022-09-22T03:39:57.580Z,14.96
2022-09-22T03:42:24.476Z,14.95
2022-09-22T03:44:51.801Z,14.93
2022-09-22T03:47:20.152Z,14.91
2022-09-22T03:49:52.872Z,14.89
2022-09-22T03:52:23.693Z,14.88
2022-09-22T03:54:50.000Z,14.86
2022-09-22T03:57:16.352Z,14.84
2022-09-22T03:59:42.648Z,14.82
2022-09-22T04:02:08.984Z,14.79
2022-09-22T04:04:35.214Z,14.77
2022-09-22T04:07:06.845Z,14.75
2022-09-22T04:09:33.700Z,14.73
2022-09-22T04:12:00.474Z,14.72
2022-09-22T04:14:26.686Z,14.70
2022-09-22T04:16:53.299Z,14.67
2022-09-22T04:19:19.595Z,14.65
2022-09-22T04:21:45.797Z,14.63
2022-09-22T04:24:12.208Z,14.62
2022-09-22T04:26:38.438Z,14.60
2022-09-22T04:29:05.454Z,14.58
2022-09-22T04:31:31.835Z,14.57
2022-09-22T04:33:58.075Z,14.55
2022-09-22T04:36:24.292Z,14.54
2022-09-22T04:38:50.512Z,14.51
2022-09-22T04:41:16.744Z,14.50
2022-09-22T04:43:43.397Z,14.48
2022-09-22T04:46:09.840Z,14.46
2022-09-22T04:48:36.055Z,14.43
2022-09-22T04:51:02.261Z,14.42
2022-09-22T04:53:28.487Z,14.40
2022-09-22T04:55:54.754Z,14.40
2022-09-22T04:58:21.643Z,14.38
2022-09-22T05:00:47.935Z,14.36
2022-09-22T05:03:16.521Z,14.36
2022-09-22T05:05:46.204Z,14.35
2022-09-22T05:08:12.744Z,14.32
2022-09-22T05:10:45.919Z,14.32
2022-09-22T05:13:12.610Z,14.30
2022-09-22T05:15:38.834Z,14.29
2022-09-22T05:18:05.091Z,14.28
2022-09-22T05:20:31.281Z,14.27
2022-09-22T05:22:57.534Z,14.26
2022-09-22T05:25:23.724Z,14.26
2022-09-22T05:27:50.137Z,14.27
2022-09-22T05:30:17.026Z,14.28
2022-09-22T05:32:43.613Z,14.37
2022-09-22T05:35:09.856Z,14.51
2022-09-22T05:37:36.376Z,14.59
2022-09-22T05:40:02.898Z,14.68
2022-09-22T05:42:29.285Z,14.77
2022-09-22T05:44:55.510Z,14.86
2022-09-22T05:47:23.864Z,14.95
2022-09-22T05:49:50.045Z,15.07
2022-09-22T05:52:16.243Z,15.26
2022-09-22T05:54:42.496Z,15.60
2022-09-22T05:57:08.729Z,15.99
2022-09-22T05:59:34.917Z,16.33
2022-09-22T06:02:01.912Z,16.63
2022-09-22T06:04:32.461Z,16.92
2022-09-22T06:06:59.031Z,17.16
2022-09-22T06:12:09.522Z,17.61
2022-09-22T06:14:43.037Z,17.80
2022-09-22T06:17:28.085Z,18.02
2022-09-22T06:19:54.420Z,18.21
2022-09-22T06:22:20.843Z,18.39
2022-09-22T06:24:47.170Z,18.59
2022-09-22T06:27:13.421Z,18.78
2022-09-22T06:29:39.835Z,18.96
2022-09-22T06:32:06.232Z,19.11
2022-09-22T06:34:32.911Z,19.28
2022-09-22T06:36:59.305Z,19.42
2022-09-22T06:39:25.783Z,19.58
2022-09-22T06:41:52.473Z,19.75
2022-09-22T06:44:18.720Z,19.92
2022-09-22T06:46:45.598Z,20.09
2022-09-22T06:49:11.815Z,20.26
2022-09-22T06:51:38.157Z,20.41
2022-09-22T06:54:04.657Z,20.58
2022-09-22T06:56:35.414Z,20.73
2022-09-22T06:59:10.828Z,20.90
2022-09-22T07:01:37.801Z,21.05
2022-09-22T07:04:04.114Z,21.19
2022-09-22T07:06:30.415Z,21.36
2022-09-22T07:08:56.941Z,21.50
2022-09-22T07:11:23.934Z,21.65
2022-09-22T07:13:50.485Z,21.80
2022-09-22T07:16:16.760Z,21.93
2022-09-22T07:18:43.818Z,22.06
2022-09-22T07:21:10.187Z,22.20
2022-09-22T07:23:36.746Z,22.32
2022-09-22T07:26:03.733Z,22.47
2022-09-22T07:28:30.334Z,22.60
2022-09-22T07:30:59.104Z,22.72
2022-09-22T07:33:27.639Z,22.84
2022-09-22T07:35:53.920Z,22.97
2022-09-22T07:38:20.243Z,23.10
2022-09-22T07:40:46.710Z,23.20
2022-09-22T07:43:13.122Z,23.33
2022-09-22T07:45:40.860Z,23.47
2022-09-22T07:48:07.445Z,23.60
2022-09-22T07:50:33.788Z,23.63
2022-09-22T07:53:02.182Z,23.63
2022-09-22T07:55:30.965Z,23.59
2022-09-22T07:57:57.402Z,23.59
2022-09-22T08:00:23.761Z,23.63
2022-09-22T08:02:49.994Z,23.68
2022-09-22T08:05:16.555Z,23.77
2022-09-22T08:07:42.890Z,23.90
2022-09-22T08:10:09.294Z,24.07
2022-09-22T08:12:35.582Z,24.27
2022-09-22T08:15:01.863Z,24.50
2022-09-22T08:17:28.523Z,24.72
2022-09-22T08:19:54.773Z,24.95
2022-09-22T08:22:21.222Z,25.17
2022-09-22T08:24:48.898Z,25.34
2022-09-22T08:28:01.598Z,25.44
2022-09-22T08:30:02.421Z,25.49
2022-09-22T08:32:28.635Z,25.72
2022-09-22T08:34:54.994Z,25.78
2022-09-22T08:37:21.274Z,25.87
2022-09-22T08:39:47.525Z,25.93
2022-09-22T08:42:14.768Z,25.99
2022-09-22T08:44:40.978Z,26.06
2022-09-22T08:47:07.484Z,26.04
2022-09-22T08:49:33.737Z,25.95
2022-09-22T08:52:00.230Z,25.89
2022-09-22T08:54:27.335Z,25.82
2022-09-22T08:56:55.440Z,25.72
2022-09-22T08:59:24.998Z,25.61
2022-09-22T09:01:51.514Z,25.48
2022-09-22T09:04:17.792Z,25.29
2022-09-22T09:06:44.507Z,25.04
2022-09-22T09:09:10.976Z,24.60
2022-09-22T09:11:38.733Z,24.32
2022-09-22T09:14:05.298Z,23.96
2022-09-22T09:16:34.222Z,23.72
2022-09-22T09:19:03.957Z,23.52
2022-09-22T09:21:30.300Z,23.40
2022-09-22T09:26:43.399Z,23.10
2022-09-22T09:29:20.265Z,22.98
2022-09-22T09:31:48.126Z,22.87
2022-09-22T09:34:14.381Z,22.79
2022-09-22T09:36:44.688Z,22.82
2022-09-22T09:39:11.186Z,22.65
2022-09-22T09:41:37.787Z,22.62
2022-09-22T09:44:04.046Z,22.73
2022-09-22T09:46:30.355Z,22.62
2022-09-22T09:48:56.659Z,22.72
2022-09-22T09:51:22.904Z,22.77
2022-09-22T09:53:52.397Z,22.69
2022-09-22T09:56:18.917Z,22.77
2022-09-22T09:58:45.195Z,22.72
2022-09-22T10:01:12.791Z,22.64
2022-09-22T10:03:43.899Z,22.62
2022-09-22T10:06:12.062Z,22.64
2022-09-22T10:08:40.744Z,22.59
2022-09-22T10:11:10.690Z,22.59
2022-09-22T10:13:40.632Z,22.53
2022-09-22T10:16:08.501Z,22.65
2022-09-22T10:18:34.967Z,22.74
2022-09-22T10:21:02.439Z,22.80
2022-09-22T10:23:38.294Z,22.77
2022-09-22T10:29:12.683Z,22.72
2022-09-22T10:31:40.920Z,22.64
2022-09-22T10:34:12.808Z,22.64
2022-09-22T10:36:47.198Z,22.43
2022-09-22T10:39:16.248Z,22.24
2022-09-22T10:41:43.194Z,22.17
2022-09-22T10:44:34.672Z,22.04
2022-09-22T10:46:57.350Z,21.89
2022-09-22T10:49:36.488Z,21.74
2022-09-22T10:52:04.052Z,21.64
2022-09-22T10:54:30.480Z,21.59
2022-09-22T10:56:56.781Z,21.66
2022-09-22T10:59:23.389Z,21.64
2022-09-22T11:01:51.100Z,21.63
2022-09-22T11:04:17.505Z,21.68
2022-09-22T11:06:43.994Z,21.69
2022-09-22T11:09:12.233Z,21.79
2022-09-22T11:11:40.507Z,21.86
2022-09-22T11:14:10.040Z,21.88
2022-09-22T11:16:36.337Z,21.89
2022-09-22T11:19:03.385Z,21.79
2022-09-22T11:21:29.755Z,21.81
2022-09-22T11:23:56.374Z,21.87
2022-09-22T11:26:22.636Z,21.91
2022-09-22T11:28:51.584Z,21.95
2022-09-22T11:31:21.133Z,21.99
2022-09-22T11:33:47.378Z,22.04
2022-09-22T11:36:13.625Z,22.07
2022-09-22T11:38:39.903Z,22.10
2022-09-22T11:41:06.284Z,22.11
2022-09-22T11:43:32.540Z,22.14
2022-09-22T11:45:58.757Z,22.16
2022-09-22T11:48:26.463Z,22.19
2022-09-22T11:50:52.852Z,22.18
2022-09-22T11:53:19.075Z,22.21
2022-09-22T11:55:45.324Z,22.23
2022-09-22T11:58:11.511Z,22.23
2022-09-22T12:00:37.690Z,22.24
2022-09-22T12:03:04.438Z,22.24
2022-09-22T12:05:33.650Z,22.25
2022-09-22T12:08:00.093Z,22.27
2022-09-22T12:10:26.418Z,22.29
2022-09-22T12:12:52.619Z,22.29
2022-09-22T12:15:19.266Z,22.30
2022-09-22T12:17:45.537Z,22.30
2022-09-22T12:20:11.809Z,22.30
2022-09-22T12:22:38.272Z,22.29
2022-09-22T12:25:11.078Z,22.31
2022-09-22T12:27:39.753Z,22.31
2022-09-22T12:30:11.319Z,22.32
2022-09-22T12:33:04.771Z,22.32
2022-09-22T12:35:36.461Z,22.32
2022-09-22T12:38:02.780Z,22.31
2022-09-22T12:40:29.134Z,22.31
2022-09-22T12:42:55.408Z,22.31
2022-09-22T12:45:21.790Z,22.33
2022-09-22T12:47:50.373Z,22.32
2022-09-22T12:50:18.068Z,22.30
2022-09-22T12:52:44.397Z,22.30
2022-09-22T12:55:10.752Z,22.30
2022-09-22T12:57:39.448Z,22.31
2022-09-22T13:00:05.667Z,22.29
2022-09-22T13:02:32.038Z,22.38
2022-09-22T13:04:58.415Z,22.39
2022-09-22T13:07:24.784Z,22.34
2022-09-22T13:09:51.256Z,22.33
2022-09-22T13:12:17.555Z,22.33
2022-09-22T13:14:43.930Z,22.33
2022-09-22T13:17:13.488Z,22.33
2022-09-22T13:19:39.782Z,22.32
2022-09-22T13:22:09.849Z,22.32
2022-09-22T13:24:36.060Z,22.31
2022-09-22T13:27:02.510Z,22.31
2022-09-22T13:29:28.752Z,22.30
2022-09-22T13:31:54.961Z,22.30
2022-09-22T13:34:21.229Z,22.32
2022-09-22T13:36:47.805Z,22.33
2022-09-22T13:39:14.084Z,22.39
2022-09-22T13:41:40.431Z,22.40
2022-09-22T13:44:06.806Z,22.42
2022-09-22T13:46:33.244Z,22.42
2022-09-22T13:48:59.528Z,22.42
2022-09-22T13:51:26.006Z,22.41
2022-09-22T13:53:52.247Z,22.41
2022-09-22T13:56:21.803Z,22.38
2022-09-22T13:58:48.493Z,22.30
2022-09-22T14:01:14.961Z,22.24
2022-09-22T14:03:41.673Z,22.20
2022-09-22T14:06:07.974Z,22.16
2022-09-22T14:08:34.366Z,22.12
2022-09-22T14:11:00.798Z,22.06
2022-09-22T14:13:27.702Z,22.00
2022-09-22T14:15:54.539Z,21.96
2022-09-22T14:18:22.488Z,21.90
2022-09-22T14:20:49.682Z,21.84
2022-09-22T14:23:23.475Z,21.79
2022-09-22T14:25:52.183Z,21.80
2022-09-22T14:28:30.173Z,21.82
2022-09-22T14:31:02.645Z,21.80
2022-09-22T14:33:43.177Z,21.75
2022-09-22T14:36:09.601Z,21.70
2022-09-22T14:38:36.032Z,21.68
2022-09-22T14:41:02.363Z,21.65
2022-09-22T14:43:28.649Z,21.63
2022-09-22T14:45:56.370Z,21.59
2022-09-22T14:48:22.617Z,21.57
2022-09-22T14:50:48.879Z,21.53
2022-09-22T14:53:15.551Z,21.47
2022-09-22T14:58:26.287Z,21.35
2022-09-22T15:00:52.543Z,21.29
2022-09-22T15:03:18.862Z,21.26
2022-09-22T15:05:45.090Z,21.24
2022-09-22T15:08:11.073Z,21.16
2022-09-22T15:10:37.287Z,21.10
2022-09-22T15:13:03.600Z,21.07
2022-09-22T15:15:29.843Z,21.04
2022-09-22T15:17:56.046Z,20.99
2022-09-22T15:20:22.319Z,20.94
2022-09-22T15:22:48.648Z,20.92
2022-09-22T15:25:14.940Z,20.90
2022-09-22T15:27:41.219Z,20.89
2022-09-22T15:30:07.485Z,20.86
2022-09-22T15:32:33.798Z,20.84
2022-09-22T15:35:00.237Z,20.84
2022-09-22T15:37:26.506Z,20.84
2022-09-22T15:39:52.793Z,20.84
2022-09-22T15:42:19.373Z,20.82
2022-09-22T15:44:45.693Z,20.81
2022-09-22T15:47:12.957Z,20.78
2022-09-22T15:49:39.237Z,20.75
2022-09-22T15:52:05.604Z,20.71
2022-09-22T15:54:31.850Z,20.66
2022-09-22T15:56:58.142Z,20.61
2022-09-22T15:59:24.405Z,20.57
2022-09-22T16:01:50.748Z,20.51
2022-09-22T16:04:17.132Z,20.46
2022-09-22T16:06:43.621Z,20.43
2022-09-22T16:09:12.417Z,20.47
2022-09-22T16:11:38.753Z,20.54
2022-09-22T16:14:05.066Z,20.61
2022-09-22T16:16:31.406Z,20.67
2022-09-22T16:19:00.772Z,20.74
2022-09-22T16:21:27.042Z,20.79
2022-09-22T16:23:53.263Z,20.85
2022-09-22T16:26:19.519Z,20.88
2022-09-22T16:28:45.825Z,20.90
2022-09-22T16:31:12.237Z,20.92
2022-09-22T16:33:38.494Z,20.95
2022-09-22T16:36:04.711Z,20.96
2022-09-22T16:38:30.989Z,20.98
2022-09-22T16:40:57.251Z,20.97
2022-09-22T16:43:23.548Z,20.99
2022-09-22T16:45:50.067Z,20.98
2022-09-22T16:48:16.371Z,20.98
2022-09-22T16:50:42.645Z,20.99
2022-09-22T16:53:08.919Z,20.98
2022-09-22T16:55:37.397Z,20.97
2022-09-22T16:58:03.974Z,20.96
2022-09-22T17:00:30.327Z,20.94
2022-09-22T17:02:56.518Z,20.94
2022-09-22T17:05:22.917Z,20.93
2022-09-22T17:07:49.143Z,20.90
2022-09-22T17:10:15.689Z,20.90
2022-09-22T17:12:41.949Z,20.88
2022-09-22T17:15:08.292Z,20.86
2022-09-22T17:17:34.649Z,20.84
2022-09-22T17:20:07.179Z,20.82
2022-09-22T17:22:36.769Z,20.80
2022-09-22T17:25:03.125Z,20.77
2022-09-22T17:27:34.656Z,20.76
2022-09-22T17:30:01.137Z,20.74
2022-09-22T17:32:28.821Z,20.72
2022-09-22T17:34:56.486Z,20.70
2022-09-22T17:37:23.898Z,20.68
2022-09-22T17:39:50.295Z,20.67
2022-09-22T17:42:16.616Z,20.66
2022-09-22T17:44:42.934Z,20.65
2022-09-22T17:47:09.206Z,20.63
2022-09-22T17:49:36.175Z,20.62
2022-09-22T17:52:02.509Z,20.61
2022-09-22T17:54:28.689Z,20.60
2022-09-22T17:56:54.897Z,20.58
2022-09-22T17:59:21.084Z,20.58
2022-09-22T18:01:49.298Z,20.57
2022-09-22T18:04:20.526Z,20.56
2022-09-22T18:06:48.261Z,20.56
2022-09-22T18:09:15.310Z,20.41
2022-09-22T18:11:41.757Z,20.54
2022-09-22T18:14:07.935Z,20.52
2022-09-22T18:16:34.183Z,20.51
2022-09-22T18:19:00.430Z,20.51
2022-09-22T18:21:26.718Z,20.49
2022-09-22T18:23:53.078Z,20.49
2022-09-22T18:26:19.349Z,20.49
2022-09-22T18:28:45.580Z,20.47
2022-09-22T18:31:11.906Z,20.45
2022-09-22T18:33:38.175Z,20.45
2022-09-22T18:36:04.563Z,20.45
2022-09-22T18:38:30.799Z,20.44
2022-09-22T18:40:57.040Z,20.44
2022-09-22T18:43:23.265Z,20.43
2022-09-22T18:45:52.519Z,20.42
2022-09-22T18:48:18.816Z,20.42
2022-09-22T18:50:45.047Z,20.40
2022-09-22T18:53:11.259Z,20.39
2022-09-22T18:55:37.481Z,20.40
2022-09-22T18:58:03.734Z,20.38
2022-09-22T19:00:29.959Z,20.38
2022-09-22T19:02:56.298Z,20.37
2022-09-22T19:05:22.733Z,20.37
2022-09-22T19:07:53.954Z,20.36
2022-09-22T19:10:20.155Z,20.34
2022-09-22T19:12:46.380Z,20.32
2022-09-22T19:15:12.730Z,20.30
2022-09-22T19:17:38.969Z,20.29
2022-09-22T19:20:06.520Z,20.28
2022-09-22T19:22:32.769Z,20.27
2022-09-22T19:25:01.215Z,20.26
2022-09-22T19:27:27.513Z,20.25
2022-09-22T19:29:53.888Z,20.24
2022-09-22T19:32:20.137Z,20.23
2022-09-22T19:34:46.453Z,20.21
2022-09-22T19:37:12.750Z,20.20
2022-09-22T19:39:38.984Z,20.18
2022-09-22T19:42:05.219Z,20.15
2022-09-22T19:44:31.489Z,20.14
2022-09-22T19:46:59.681Z,20.12
2022-09-22T19:49:25.934Z,20.12
2022-09-22T19:51:52.255Z,20.09
2022-09-22T19:54:18.501Z,20.09
2022-09-22T19:56:44.790Z,20.08
2022-09-22T19:59:11.006Z,20.06
2022-09-22T20:01:37.500Z,20.05
2022-09-22T20:04:03.907Z,20.03
2022-09-22T20:06:30.263Z,20.02
2022-09-22T20:08:56.542Z,20.00
2022-09-22T20:11:26.678Z,19.98
2022-09-22T20:13:53.182Z,19.97
2022-09-22T20:16:19.388Z,19.96
2022-09-22T20:18:45.628Z,19.95
2022-09-22T20:21:12.901Z,19.95
2022-09-22T20:23:39.102Z,19.93
2022-09-22T20:26:05.300Z,19.93
2022-09-22T20:28:31.517Z,19.90
2022-09-22T20:30:57.798Z,19.89
2022-09-22T20:33:24.143Z,19.89
2022-09-22T20:35:50.466Z,19.91
2022-09-22T20:38:16.750Z,19.91
2022-09-22T20:40:43.073Z,19.93
2022-09-22T20:43:09.294Z,19.94
2022-09-22T20:45:35.566Z,19.95
2022-09-22T20:48:01.886Z,19.95
2022-09-22T20:50:28.096Z,19.95
2022-09-22T20:52:54.315Z,19.95
2022-09-22T20:55:20.554Z,19.95
2022-09-22T20:57:46.756Z,19.96
2022-09-22T21:00:12.945Z,19.95
2022-09-22T21:02:39.181Z,19.95
2022-09-22T21:05:05.553Z,19.95
2022-09-22T21:10:23.728Z,19.95
2022-09-22T21:12:49.921Z,19.95
2022-09-22T21:15:16.153Z,19.94
2022-09-22T21:17:44.015Z,19.93
2022-09-22T21:20:10.532Z,19.92
2022-09-22T21:22:36.836Z,19.89
2022-09-22T21:25:03.034Z,19.90
2022-09-22T21:27:29.270Z,19.89
2022-09-22T21:29:55.508Z,19.88
2022-09-22T21:32:21.730Z,19.88
2022-09-22T21:34:47.950Z,19.89
2022-09-22T21:37:14.439Z,19.86
2022-09-22T21:39:40.664Z,19.85
2022-09-22T21:42:06.904Z,19.84
2022-09-22T21:44:33.106Z,19.83
2022-09-22T21:46:59.456Z,19.83
2022-09-22T21:49:25.777Z,19.82
2022-09-22T21:51:52.066Z,19.77
2022-09-22T21:54:18.396Z,19.70
2022-09-22T21:56:44.733Z,19.62
2022-09-22T21:59:10.947Z,19.55
2022-09-22T22:01:39.210Z,19.49
2022-09-22T22:04:05.652Z,19.43
2022-09-22T22:06:32.111Z,19.37
2022-09-22T22:08:58.411Z,19.31
2022-09-22T22:11:24.749Z,19.25
2022-09-22T22:13:51.005Z,19.18
2022-09-22T22:16:17.319Z,19.14
2022-09-22T22:18:43.677Z,19.08
2022-09-22T22:21:09.902Z,19.04
2022-09-22T22:23:36.149Z,18.99
2022-09-22T22:26:02.421Z,18.96
2022-09-22T22:28:28.651Z,18.91
2022-09-22T22:30:54.918Z,18.87
2022-09-22T22:33:21.416Z,18.82
2022-09-22T22:35:47.766Z,18.78
2022-09-22T22:38:13.968Z,18.75
2022-09-22T22:40:40.418Z,18.72
2022-09-22T22:43:06.705Z,18.68
2022-09-22T22:45:32.929Z,18.65
2022-09-22T22:47:59.420Z,18.62
2022-09-22T22:50:25.613Z,18.58
2022-09-22T22:52:51.817Z,18.54
2022-09-22T22:55:18.003Z,18.52
2022-09-22T22:57:44.200Z,18.48
2022-09-22T23:00:10.468Z,18.45
2022-09-22T23:02:36.637Z,18.42
2022-09-22T23:05:03.041Z,18.40
2022-09-22T23:07:29.279Z,18.38
2022-09-22T23:09:55.476Z,18.34
2022-09-22T23:12:21.670Z,18.31
2022-09-22T23:14:47.858Z,18.29
2022-09-22T23:17:14.072Z,18.26
2022-09-22T23:19:40.328Z,18.22
2022-09-22T23:22:06.538Z,18.19
2022-09-22T23:24:32.775Z,18.15
2022-09-22T23:26:59.000Z,18.14
2022-09-22T23:29:25.223Z,18.11
2022-09-22T23:31:51.423Z,18.08
2022-09-22T23:34:17.611Z,18.06
2022-09-22T23:36:43.887Z,18.04
2022-09-22T23:39:10.591Z,18.02
2022-09-22T23:41:36.928Z,17.99
2022-09-22T23:44:03.309Z,17.97
2022-09-22T23:46:29.797Z,17.94
2022-09-22T23:48:56.080Z,17.91
2022-09-22T23:51:22.330Z,17.89
2022-09-22T23:53:48.588Z,17.86
2022-09-22T23:56:14.851Z,17.83
2022-09-22T23:58:41.148Z,17.80
